Aventura, Florida
Current Conditions -  °F | °C
As of 11:53 AM on Sunday 23 Nov 2014 (Local Time) from KHWO Reporting Station
Broken Clouds Broken Clouds  
Wind Chill: 28°   Ceiling: 2500
Heat Index: 31°   Visibility: 10mi
Dew Point: 22°   Wind: 21mph
Humidity: 69%   Direction: 140°SE
Pressure: 30.01"   Gusts: 26mph
Location:  25.9536°N, 80.1568°W
Report Text: KHWO 231653Z 14018G23KT 10SM BKN025 BKN031 28/22 A3001 RMK AO2 SLP162 T02830222
Loading
Personal Weather Stations






























Interactive Weather Map New forecast layout! Learn more

10-Day Weather Forecast

Advertisements
Track Severe Weather on mobile